sensor_id;sensor_type;location;lat;lon;timestamp;P1;durP1;ratioP1;P2;durP2;ratioP2
53299;SDS011;39187;48.476;8.310;2022-08-21T00:01:29;2.80;;;2.53;;
53299;SDS011;39187;48.476;8.310;2022-08-21T00:03:55;3.17;;;2.90;;
53299;SDS011;39187;48.476;8.310;2022-08-21T00:06:22;4.33;;;3.23;;
53299;SDS011;39187;48.476;8.310;2022-08-21T00:08:49;2.83;;;2.43;;
53299;SDS011;39187;48.476;8.310;2022-08-21T00:11:16;5.20;;;2.80;;
53299;SDS011;39187;48.476;8.310;2022-08-21T00:13:43;3.70;;;2.40;;
53299;SDS011;39187;48.476;8.310;2022-08-21T00:16:09;5.80;;;2.90;;
53299;SDS011;39187;48.476;8.310;2022-08-21T00:18:34;8.63;;;2.83;;
53299;SDS011;39187;48.476;8.310;2022-08-21T00:21:00;3.20;;;2.37;;
53299;SDS011;39187;48.476;8.310;2022-08-21T00:23:26;3.17;;;2.60;;
53299;SDS011;39187;48.476;8.310;2022-08-21T00:25:52;9.27;;;3.33;;
53299;SDS011;39187;48.476;8.310;2022-08-21T00:28:17;5.37;;;3.70;;
53299;SDS011;39187;48.476;8.310;2022-08-21T00:30:43;3.20;;;2.53;;
53299;SDS011;39187;48.476;8.310;2022-08-21T00:33:11;3.00;;;2.73;;
53299;SDS011;39187;48.476;8.310;2022-08-21T00:35:38;4.07;;;2.60;;
53299;SDS011;39187;48.476;8.310;2022-08-21T00:38:06;3.97;;;2.63;;
53299;SDS011;39187;48.476;8.310;2022-08-21T00:40:53;3.50;;;2.90;;
53299;SDS011;39187;48.476;8.310;2022-08-21T00:43:22;2.87;;;2.67;;
53299;SDS011;39187;48.476;8.310;2022-08-21T00:45:50;3.07;;;2.87;;
53299;SDS011;39187;48.476;8.310;2022-08-21T00:48:18;7.03;;;3.60;;
53299;SDS011;39187;48.476;8.310;2022-08-21T00:50:55;4.00;;;2.90;;
53299;SDS011;39187;48.476;8.310;2022-08-21T00:53:25;3.30;;;2.70;;
53299;SDS011;39187;48.476;8.310;2022-08-21T00:55:51;4.40;;;2.53;;
53299;SDS011;39187;48.476;8.310;2022-08-21T00:58:18;4.70;;;3.20;;
53299;SDS011;39187;48.476;8.310;2022-08-21T01:00:45;5.10;;;3.10;;
53299;SDS011;39187;48.476;8.310;2022-08-21T01:03:13;3.37;;;2.70;;
53299;SDS011;39187;48.476;8.310;2022-08-21T01:05:44;3.10;;;2.73;;
53299;SDS011;39187;48.476;8.310;2022-08-21T01:08:11;2.57;;;2.47;;
53299;SDS011;39187;48.476;8.310;2022-08-21T01:10:38;12.20;;;3.57;;
53299;SDS011;39187;48.476;8.310;2022-08-21T01:13:07;5.90;;;3.23;;
53299;SDS011;39187;48.476;8.310;2022-08-21T01:15:37;3.33;;;2.50;;
53299;SDS011;39187;48.476;8.310;2022-08-21T01:18:07;6.40;;;5.10;;
53299;SDS011;39187;48.476;8.310;2022-08-21T01:20:36;5.80;;;2.70;;
53299;SDS011;39187;48.476;8.310;2022-08-21T01:23:04;4.63;;;3.40;;
53299;SDS011;39187;48.476;8.310;2022-08-21T01:25:31;3.40;;;2.90;;
53299;SDS011;39187;48.476;8.310;2022-08-21T01:27:57;6.63;;;2.83;;
53299;SDS011;39187;48.476;8.310;2022-08-21T01:30:26;4.40;;;3.00;;
53299;SDS011;39187;48.476;8.310;2022-08-21T01:32:53;4.50;;;3.23;;
53299;SDS011;39187;48.476;8.310;2022-08-21T01:35:20;4.13;;;3.83;;
53299;SDS011;39187;48.476;8.310;2022-08-21T01:37:46;5.53;;;2.77;;
53299;SDS011;39187;48.476;8.310;2022-08-21T01:40:14;8.40;;;4.00;;
53299;SDS011;39187;48.476;8.310;2022-08-21T01:42:41;6.07;;;3.27;;
53299;SDS011;39187;48.476;8.310;2022-08-21T01:45:08;4.50;;;3.03;;
53299;SDS011;39187;48.476;8.310;2022-08-21T01:47:34;4.03;;;3.70;;
53299;SDS011;39187;48.476;8.310;2022-08-21T01:50:01;11.10;;;4.40;;
53299;SDS011;39187;48.476;8.310;2022-08-21T01:52:29;5.80;;;4.03;;
53299;SDS011;39187;48.476;8.310;2022-08-21T01:54:55;5.73;;;4.40;;
53299;SDS011;39187;48.476;8.310;2022-08-21T01:57:20;3.93;;;3.40;;
53299;SDS011;39187;48.476;8.310;2022-08-21T01:59:46;14.37;;;3.83;;
53299;SDS011;39187;48.476;8.310;2022-08-21T02:02:12;3.73;;;3.43;;
53299;SDS011;39187;48.476;8.310;2022-08-21T02:04:37;5.70;;;4.23;;
53299;SDS011;39187;48.476;8.310;2022-08-21T02:07:03;4.47;;;3.80;;
53299;SDS011;39187;48.476;8.310;2022-08-21T02:09:29;7.80;;;3.50;;
53299;SDS011;39187;48.476;8.310;2022-08-21T02:11:54;8.30;;;4.40;;
53299;SDS011;39187;48.476;8.310;2022-08-21T02:14:20;6.73;;;3.90;;
53299;SDS011;39187;48.476;8.310;2022-08-21T02:16:46;7.23;;;3.80;;
53299;SDS011;39187;48.476;8.310;2022-08-21T02:19:12;5.60;;;4.00;;
53299;SDS011;39187;48.476;8.310;2022-08-21T02:21:40;7.40;;;4.07;;
53299;SDS011;39187;48.476;8.310;2022-08-21T02:24:06;6.80;;;3.57;;
53299;SDS011;39187;48.476;8.310;2022-08-21T02:26:32;9.03;;;5.23;;
53299;SDS011;39187;48.476;8.310;2022-08-21T02:28:58;10.43;;;4.50;;
53299;SDS011;39187;48.476;8.310;2022-08-21T02:31:24;7.60;;;3.30;;
53299;SDS011;39187;48.476;8.310;2022-08-21T02:33:50;4.20;;;3.90;;
53299;SDS011;39187;48.476;8.310;2022-08-21T02:36:16;6.20;;;4.07;;
53299;SDS011;39187;48.476;8.310;2022-08-21T02:38:42;5.57;;;3.57;;
53299;SDS011;39187;48.476;8.310;2022-08-21T02:41:11;8.73;;;4.03;;
53299;SDS011;39187;48.476;8.310;2022-08-21T02:43:39;3.73;;;3.53;;
53299;SDS011;39187;48.476;8.310;2022-08-21T02:46:05;5.90;;;4.23;;
53299;SDS011;39187;48.476;8.310;2022-08-21T02:48:32;4.23;;;3.67;;
53299;SDS011;39187;48.476;8.310;2022-08-21T02:51:00;8.77;;;4.07;;
53299;SDS011;39187;48.476;8.310;2022-08-21T02:53:29;4.93;;;3.87;;
53299;SDS011;39187;48.476;8.310;2022-08-21T02:55:56;4.33;;;4.03;;
53299;SDS011;39187;48.476;8.310;2022-08-21T02:58:25;5.20;;;3.63;;
53299;SDS011;39187;48.476;8.310;2022-08-21T03:00:53;5.53;;;4.03;;
53299;SDS011;39187;48.476;8.310;2022-08-21T03:03:19;5.30;;;4.87;;
53299;SDS011;39187;48.476;8.310;2022-08-21T03:05:46;7.10;;;3.87;;
53299;SDS011;39187;48.476;8.310;2022-08-21T03:08:13;6.17;;;5.50;;
53299;SDS011;39187;48.476;8.310;2022-08-21T03:10:41;4.80;;;4.40;;
53299;SDS011;39187;48.476;8.310;2022-08-21T03:13:09;4.77;;;3.50;;
53299;SDS011;39187;48.476;8.310;2022-08-21T03:15:35;5.60;;;4.53;;
53299;SDS011;39187;48.476;8.310;2022-08-21T03:18:02;6.50;;;4.77;;
53299;SDS011;39187;48.476;8.310;2022-08-21T03:20:29;7.90;;;4.03;;
53299;SDS011;39187;48.476;8.310;2022-08-21T03:22:57;5.30;;;4.87;;
53299;SDS011;39187;48.476;8.310;2022-08-21T03:25:23;4.07;;;3.77;;
53299;SDS011;39187;48.476;8.310;2022-08-21T03:27:49;4.50;;;3.83;;
53299;SDS011;39187;48.476;8.310;2022-08-21T03:30:15;4.40;;;4.00;;
53299;SDS011;39187;48.476;8.310;2022-08-21T03:32:42;10.10;;;5.47;;
53299;SDS011;39187;48.476;8.310;2022-08-21T03:35:08;4.30;;;3.80;;
53299;SDS011;39187;48.476;8.310;2022-08-21T03:37:34;4.77;;;4.37;;
53299;SDS011;39187;48.476;8.310;2022-08-21T03:40:01;4.83;;;4.20;;
53299;SDS011;39187;48.476;8.310;2022-08-21T03:42:29;7.10;;;5.20;;
53299;SDS011;39187;48.476;8.310;2022-08-21T03:44:54;4.60;;;4.27;;
53299;SDS011;39187;48.476;8.310;2022-08-21T03:47:20;7.70;;;4.23;;
53299;SDS011;39187;48.476;8.310;2022-08-21T03:49:46;6.60;;;3.83;;
53299;SDS011;39187;48.476;8.310;2022-08-21T03:52:12;3.60;;;3.30;;
53299;SDS011;39187;48.476;8.310;2022-08-21T03:54:38;7.70;;;4.20;;
53299;SDS011;39187;48.476;8.310;2022-08-21T03:57:05;9.83;;;4.20;;
53299;SDS011;39187;48.476;8.310;2022-08-21T03:59:30;4.33;;;4.03;;
53299;SDS011;39187;48.476;8.310;2022-08-21T04:01:57;4.70;;;4.20;;
53299;SDS011;39187;48.476;8.310;2022-08-21T04:04:25;4.30;;;3.87;;
53299;SDS011;39187;48.476;8.310;2022-08-21T04:06:52;4.67;;;4.03;;
53299;SDS011;39187;48.476;8.310;2022-08-21T04:09:19;7.60;;;5.10;;
53299;SDS011;39187;48.476;8.310;2022-08-21T04:11:44;9.27;;;5.20;;
53299;SDS011;39187;48.476;8.310;2022-08-21T04:14:11;5.23;;;4.80;;
53299;SDS011;39187;48.476;8.310;2022-08-21T04:16:37;8.13;;;4.70;;
53299;SDS011;39187;48.476;8.310;2022-08-21T04:19:03;9.00;;;4.77;;
53299;SDS011;39187;48.476;8.310;2022-08-21T04:21:29;5.30;;;4.80;;
53299;SDS011;39187;48.476;8.310;2022-08-21T04:23:55;4.33;;;3.93;;
53299;SDS011;39187;48.476;8.310;2022-08-21T04:26:21;4.87;;;4.27;;
53299;SDS011;39187;48.476;8.310;2022-08-21T04:28:47;4.90;;;4.50;;
53299;SDS011;39187;48.476;8.310;2022-08-21T04:31:13;4.97;;;4.03;;
53299;SDS011;39187;48.476;8.310;2022-08-21T04:33:39;6.13;;;4.30;;
53299;SDS011;39187;48.476;8.310;2022-08-21T04:36:05;10.80;;;3.60;;
53299;SDS011;39187;48.476;8.310;2022-08-21T04:38:32;7.10;;;4.87;;
53299;SDS011;39187;48.476;8.310;2022-08-21T04:40:57;5.10;;;4.70;;
53299;SDS011;39187;48.476;8.310;2022-08-21T04:43:23;6.90;;;4.83;;
53299;SDS011;39187;48.476;8.310;2022-08-21T04:45:49;5.80;;;4.70;;
53299;SDS011;39187;48.476;8.310;2022-08-21T04:48:18;4.83;;;4.40;;
53299;SDS011;39187;48.476;8.310;2022-08-21T04:56:01;4.50;;;4.07;;
53299;SDS011;39187;48.476;8.310;2022-08-21T04:58:33;4.83;;;4.40;;
53299;SDS011;39187;48.476;8.310;2022-08-21T05:01:00;5.97;;;4.40;;
53299;SDS011;39187;48.476;8.310;2022-08-21T05:03:27;6.30;;;3.70;;
53299;SDS011;39187;48.476;8.310;2022-08-21T05:05:56;8.90;;;4.80;;
53299;SDS011;39187;48.476;8.310;2022-08-21T05:08:23;5.77;;;3.63;;
53299;SDS011;39187;48.476;8.310;2022-08-21T05:10:50;3.77;;;3.57;;
53299;SDS011;39187;48.476;8.310;2022-08-21T05:13:16;4.57;;;3.60;;
53299;SDS011;39187;48.476;8.310;2022-08-21T05:15:42;7.67;;;3.80;;
53299;SDS011;39187;48.476;8.310;2022-08-21T05:18:08;5.30;;;3.73;;
53299;SDS011;39187;48.476;8.310;2022-08-21T05:20:34;4.83;;;4.13;;
53299;SDS011;39187;48.476;8.310;2022-08-21T05:22:59;4.50;;;4.20;;
53299;SDS011;39187;48.476;8.310;2022-08-21T05:25:25;4.23;;;3.30;;
53299;SDS011;39187;48.476;8.310;2022-08-21T05:27:51;3.70;;;3.40;;
53299;SDS011;39187;48.476;8.310;2022-08-21T05:30:17;3.73;;;3.40;;
53299;SDS011;39187;48.476;8.310;2022-08-21T05:32:42;7.80;;;3.70;;
53299;SDS011;39187;48.476;8.310;2022-08-21T05:35:08;3.43;;;3.13;;
53299;SDS011;39187;48.476;8.310;2022-08-21T05:37:34;6.20;;;3.63;;
53299;SDS011;39187;48.476;8.310;2022-08-21T05:40:00;5.57;;;3.80;;
53299;SDS011;39187;48.476;8.310;2022-08-21T05:42:27;3.53;;;2.70;;
53299;SDS011;39187;48.476;8.310;2022-08-21T05:44:53;5.13;;;3.33;;
53299;SDS011;39187;48.476;8.310;2022-08-21T05:47:18;6.80;;;3.37;;
53299;SDS011;39187;48.476;8.310;2022-08-21T05:49:44;8.03;;;3.50;;
53299;SDS011;39187;48.476;8.310;2022-08-21T05:52:09;6.83;;;3.67;;
53299;SDS011;39187;48.476;8.310;2022-08-21T05:54:36;4.20;;;2.80;;
53299;SDS011;39187;48.476;8.310;2022-08-21T05:57:02;9.03;;;3.30;;
53299;SDS011;39187;48.476;8.310;2022-08-21T05:59:28;12.70;;;9.80;;
53299;SDS011;39187;48.476;8.310;2022-08-21T06:01:54;11.33;;;9.27;;
53299;SDS011;39187;48.476;8.310;2022-08-21T06:04:20;5.57;;;3.80;;
53299;SDS011;39187;48.476;8.310;2022-08-21T06:06:45;5.60;;;4.07;;
53299;SDS011;39187;48.476;8.310;2022-08-21T06:09:12;3.83;;;3.53;;
53299;SDS011;39187;48.476;8.310;2022-08-21T06:11:38;3.93;;;3.60;;
53299;SDS011;39187;48.476;8.310;2022-08-21T06:14:03;3.50;;;2.93;;
53299;SDS011;39187;48.476;8.310;2022-08-21T06:16:31;4.17;;;3.00;;
53299;SDS011;39187;48.476;8.310;2022-08-21T06:18:57;3.90;;;3.60;;
53299;SDS011;39187;48.476;8.310;2022-08-21T06:21:23;8.60;;;3.80;;
53299;SDS011;39187;48.476;8.310;2022-08-21T06:23:48;5.03;;;3.07;;
53299;SDS011;39187;48.476;8.310;2022-08-21T06:26:14;3.17;;;2.97;;
53299;SDS011;39187;48.476;8.310;2022-08-21T06:28:40;4.90;;;2.70;;
53299;SDS011;39187;48.476;8.310;2022-08-21T06:31:17;8.30;;;3.43;;
53299;SDS011;39187;48.476;8.310;2022-08-21T06:33:44;4.83;;;2.90;;
53299;SDS011;39187;48.476;8.310;2022-08-21T06:36:10;3.30;;;3.00;;
53299;SDS011;39187;48.476;8.310;2022-08-21T06:38:37;3.50;;;3.07;;
53299;SDS011;39187;48.476;8.310;2022-08-21T06:41:03;5.30;;;2.83;;
53299;SDS011;39187;48.476;8.310;2022-08-21T06:43:29;5.13;;;3.23;;
53299;SDS011;39187;48.476;8.310;2022-08-21T06:45:54;4.27;;;3.87;;
53299;SDS011;39187;48.476;8.310;2022-08-21T06:48:20;3.70;;;3.40;;
53299;SDS011;39187;48.476;8.310;2022-08-21T06:50:46;3.00;;;2.70;;
53299;SDS011;39187;48.476;8.310;2022-08-21T06:53:13;9.67;;;4.10;;
53299;SDS011;39187;48.476;8.310;2022-08-21T06:55:40;4.40;;;4.00;;
53299;SDS011;39187;48.476;8.310;2022-08-21T06:58:07;3.73;;;3.33;;
53299;SDS011;39187;48.476;8.310;2022-08-21T07:00:34;7.90;;;2.90;;
53299;SDS011;39187;48.476;8.310;2022-08-21T07:03:03;4.03;;;3.60;;
53299;SDS011;39187;48.476;8.310;2022-08-21T07:05:29;4.03;;;3.03;;
53299;SDS011;39187;48.476;8.310;2022-08-21T07:07:55;2.93;;;2.73;;
53299;SDS011;39187;48.476;8.310;2022-08-21T07:10:22;10.17;;;3.67;;
53299;SDS011;39187;48.476;8.310;2022-08-21T07:12:49;2.90;;;2.50;;
53299;SDS011;39187;48.476;8.310;2022-08-21T07:15:16;6.20;;;2.67;;
53299;SDS011;39187;48.476;8.310;2022-08-21T07:17:42;4.40;;;2.50;;
53299;SDS011;39187;48.476;8.310;2022-08-21T07:20:07;5.20;;;2.50;;
53299;SDS011;39187;48.476;8.310;2022-08-21T07:22:35;5.03;;;2.60;;
53299;SDS011;39187;48.476;8.310;2022-08-21T07:25:01;5.10;;;2.10;;
53299;SDS011;39187;48.476;8.310;2022-08-21T07:27:28;7.80;;;3.20;;
53299;SDS011;39187;48.476;8.310;2022-08-21T07:29:54;4.37;;;3.07;;
53299;SDS011;39187;48.476;8.310;2022-08-21T07:32:19;3.93;;;2.70;;
53299;SDS011;39187;48.476;8.310;2022-08-21T07:34:45;2.43;;;2.23;;
53299;SDS011;39187;48.476;8.310;2022-08-21T07:37:10;3.50;;;2.67;;
53299;SDS011;39187;48.476;8.310;2022-08-21T07:39:36;4.73;;;2.90;;
53299;SDS011;39187;48.476;8.310;2022-08-21T07:42:01;4.27;;;2.20;;
53299;SDS011;39187;48.476;8.310;2022-08-21T07:44:28;9.97;;;2.40;;
53299;SDS011;39187;48.476;8.310;2022-08-21T07:46:53;2.77;;;2.43;;
53299;SDS011;39187;48.476;8.310;2022-08-21T07:49:19;5.13;;;2.33;;
53299;SDS011;39187;48.476;8.310;2022-08-21T07:51:45;3.30;;;2.50;;
53299;SDS011;39187;48.476;8.310;2022-08-21T07:54:10;2.30;;;2.13;;
53299;SDS011;39187;48.476;8.310;2022-08-21T07:56:36;4.87;;;2.73;;
53299;SDS011;39187;48.476;8.310;2022-08-21T07:59:02;3.20;;;2.40;;
53299;SDS011;39187;48.476;8.310;2022-08-21T08:01:27;5.10;;;2.83;;
53299;SDS011;39187;48.476;8.310;2022-08-21T08:03:54;2.23;;;2.13;;
53299;SDS011;39187;48.476;8.310;2022-08-21T08:06:20;2.63;;;2.30;;
53299;SDS011;39187;48.476;8.310;2022-08-21T08:08:46;2.60;;;2.47;;
53299;SDS011;39187;48.476;8.310;2022-08-21T08:11:12;2.80;;;2.60;;
53299;SDS011;39187;48.476;8.310;2022-08-21T08:13:43;2.37;;;2.17;;
53299;SDS011;39187;48.476;8.310;2022-08-21T08:16:13;2.30;;;2.20;;
53299;SDS011;39187;48.476;8.310;2022-08-21T08:18:39;3.27;;;2.50;;
53299;SDS011;39187;48.476;8.310;2022-08-21T08:21:07;3.53;;;3.23;;
53299;SDS011;39187;48.476;8.310;2022-08-21T08:23:33;4.53;;;2.70;;
53299;SDS011;39187;48.476;8.310;2022-08-21T08:25:59;4.60;;;2.43;;
53299;SDS011;39187;48.476;8.310;2022-08-21T08:28:24;3.00;;;2.70;;
53299;SDS011;39187;48.476;8.310;2022-08-21T08:30:50;2.43;;;2.23;;
53299;SDS011;39187;48.476;8.310;2022-08-21T08:33:16;5.33;;;2.80;;
53299;SDS011;39187;48.476;8.310;2022-08-21T08:35:43;3.00;;;2.10;;
53299;SDS011;39187;48.476;8.310;2022-08-21T08:38:11;6.27;;;2.00;;
53299;SDS011;39187;48.476;8.310;2022-08-21T08:43:17;5.23;;;1.73;;
53299;SDS011;39187;48.476;8.310;2022-08-21T08:45:44;6.30;;;2.03;;
53299;SDS011;39187;48.476;8.310;2022-08-21T08:48:16;2.70;;;2.50;;
53299;SDS011;39187;48.476;8.310;2022-08-21T08:50:57;3.90;;;2.50;;
53299;SDS011;39187;48.476;8.310;2022-08-21T08:53:28;2.70;;;2.23;;
53299;SDS011;39187;48.476;8.310;2022-08-21T08:55:57;3.10;;;2.07;;
53299;SDS011;39187;48.476;8.310;2022-08-21T08:58:37;3.10;;;2.20;;
53299;SDS011;39187;48.476;8.310;2022-08-21T09:01:06;3.63;;;2.37;;
53299;SDS011;39187;48.476;8.310;2022-08-21T09:03:40;3.03;;;2.57;;
53299;SDS011;39187;48.476;8.310;2022-08-21T09:11:59;3.13;;;2.70;;
53299;SDS011;39187;48.476;8.310;2022-08-21T09:15:15;3.17;;;2.30;;
53299;SDS011;39187;48.476;8.310;2022-08-21T09:20:44;4.83;;;2.63;;
53299;SDS011;39187;48.476;8.310;2022-08-21T09:26:21;2.97;;;2.67;;
53299;SDS011;39187;48.476;8.310;2022-08-21T09:28:52;3.93;;;2.33;;
53299;SDS011;39187;48.476;8.310;2022-08-21T09:31:24;3.63;;;2.50;;
53299;SDS011;39187;48.476;8.310;2022-08-21T09:33:56;3.63;;;2.80;;
53299;SDS011;39187;48.476;8.310;2022-08-21T09:36:45;6.40;;;2.90;;
53299;SDS011;39187;48.476;8.310;2022-08-21T09:39:12;2.13;;;2.03;;
53299;SDS011;39187;48.476;8.310;2022-08-21T09:41:46;2.87;;;2.63;;
53299;SDS011;39187;48.476;8.310;2022-08-21T09:44:25;2.80;;;2.60;;
53299;SDS011;39187;48.476;8.310;2022-08-21T09:46:52;3.10;;;2.90;;
53299;SDS011;39187;48.476;8.310;2022-08-21T09:49:26;6.90;;;2.80;;
53299;SDS011;39187;48.476;8.310;2022-08-21T09:51:53;3.87;;;3.40;;
53299;SDS011;39187;48.476;8.310;2022-08-21T09:54:20;3.30;;;3.03;;
53299;SDS011;39187;48.476;8.310;2022-08-21T10:00:07;3.00;;;2.70;;
53299;SDS011;39187;48.476;8.310;2022-08-21T10:02:57;2.57;;;2.43;;
53299;SDS011;39187;48.476;8.310;2022-08-21T10:05:34;3.43;;;2.20;;
53299;SDS011;39187;48.476;8.310;2022-08-21T10:08:00;2.43;;;2.23;;
53299;SDS011;39187;48.476;8.310;2022-08-21T10:10:28;3.23;;;3.00;;
53299;SDS011;39187;48.476;8.310;2022-08-21T10:13:01;6.43;;;2.33;;
53299;SDS011;39187;48.476;8.310;2022-08-21T10:18:47;2.87;;;2.67;;
53299;SDS011;39187;48.476;8.310;2022-08-21T10:24:34;4.13;;;2.37;;
53299;SDS011;39187;48.476;8.310;2022-08-21T10:27:13;4.90;;;2.70;;
53299;SDS011;39187;48.476;8.310;2022-08-21T10:35:31;6.13;;;3.20;;
53299;SDS011;39187;48.476;8.310;2022-08-21T10:38:29;6.07;;;4.67;;
53299;SDS011;39187;48.476;8.310;2022-08-21T10:41:28;5.63;;;3.47;;
53299;SDS011;39187;48.476;8.310;2022-08-21T10:44:21;4.23;;;3.60;;
53299;SDS011;39187;48.476;8.310;2022-08-21T10:47:02;4.17;;;2.93;;
53299;SDS011;39187;48.476;8.310;2022-08-21T10:52:31;2.80;;;2.60;;
53299;SDS011;39187;48.476;8.310;2022-08-21T10:55:17;5.07;;;2.63;;
53299;SDS011;39187;48.476;8.310;2022-08-21T11:00:19;6.47;;;2.60;;
53299;SDS011;39187;48.476;8.310;2022-08-21T11:05:43;2.17;;;2.07;;
53299;SDS011;39187;48.476;8.310;2022-08-21T11:08:17;2.50;;;2.40;;
53299;SDS011;39187;48.476;8.310;2022-08-21T11:11:04;4.87;;;2.60;;
53299;SDS011;39187;48.476;8.310;2022-08-21T11:16:21;2.10;;;2.00;;
53299;SDS011;39187;48.476;8.310;2022-08-21T11:21:56;3.70;;;2.90;;
53299;SDS011;39187;48.476;8.310;2022-08-21T11:24:30;2.03;;;1.93;;
53299;SDS011;39187;48.476;8.310;2022-08-21T11:29:46;2.70;;;2.30;;
53299;SDS011;39187;48.476;8.310;2022-08-21T11:32:41;2.43;;;2.23;;
53299;SDS011;39187;48.476;8.310;2022-08-21T11:38:35;2.87;;;2.73;;
53299;SDS011;39187;48.476;8.310;2022-08-21T11:41:23;4.27;;;3.00;;
53299;SDS011;39187;48.476;8.310;2022-08-21T11:44:02;3.30;;;2.20;;
53299;SDS011;39187;48.476;8.310;2022-08-21T11:46:53;4.23;;;2.80;;
53299;SDS011;39187;48.476;8.310;2022-08-21T11:49:39;3.03;;;2.83;;
53299;SDS011;39187;48.476;8.310;2022-08-21T11:56:05;4.10;;;2.60;;
53299;SDS011;39187;48.476;8.310;2022-08-21T11:58:20;3.67;;;3.30;;
53299;SDS011;39187;48.476;8.310;2022-08-21T12:00:58;7.80;;;3.20;;
53299;SDS011;39187;48.476;8.310;2022-08-21T12:06:06;4.13;;;2.80;;
53299;SDS011;39187;48.476;8.310;2022-08-21T12:11:06;3.83;;;2.33;;
53299;SDS011;39187;48.476;8.310;2022-08-21T12:13:55;4.03;;;2.70;;
53299;SDS011;39187;48.476;8.310;2022-08-21T12:16:39;2.23;;;2.13;;
53299;SDS011;39187;48.476;8.310;2022-08-21T12:19:08;3.50;;;3.20;;
53299;SDS011;39187;48.476;8.310;2022-08-21T12:21:49;3.40;;;3.17;;
53299;SDS011;39187;48.476;8.310;2022-08-21T12:24:45;3.67;;;3.37;;
53299;SDS011;39187;48.476;8.310;2022-08-21T12:29:45;3.23;;;3.03;;
53299;SDS011;39187;48.476;8.310;2022-08-21T12:34:44;3.20;;;3.00;;
53299;SDS011;39187;48.476;8.310;2022-08-21T12:37:34;2.43;;;2.33;;
53299;SDS011;39187;48.476;8.310;2022-08-21T12:40:10;5.33;;;2.37;;
53299;SDS011;39187;48.476;8.310;2022-08-21T12:42:45;2.70;;;2.53;;
53299;SDS011;39187;48.476;8.310;2022-08-21T12:50:46;3.07;;;2.50;;
53299;SDS011;39187;48.476;8.310;2022-08-21T12:53:19;3.43;;;2.77;;
53299;SDS011;39187;48.476;8.310;2022-08-21T12:55:53;3.37;;;3.17;;
53299;SDS011;39187;48.476;8.310;2022-08-21T12:58:25;3.33;;;2.97;;
53299;SDS011;39187;48.476;8.310;2022-08-21T13:00:52;2.83;;;2.63;;
53299;SDS011;39187;48.476;8.310;2022-08-21T13:03:21;3.70;;;2.53;;
53299;SDS011;39187;48.476;8.310;2022-08-21T13:05:47;2.70;;;2.50;;
53299;SDS011;39187;48.476;8.310;2022-08-21T13:08:16;4.67;;;2.70;;
53299;SDS011;39187;48.476;8.310;2022-08-21T13:10:44;2.63;;;2.43;;
53299;SDS011;39187;48.476;8.310;2022-08-21T13:13:16;2.57;;;2.37;;
53299;SDS011;39187;48.476;8.310;2022-08-21T13:15:46;3.00;;;2.70;;
53299;SDS011;39187;48.476;8.310;2022-08-21T13:18:22;3.50;;;3.20;;
53299;SDS011;39187;48.476;8.310;2022-08-21T13:20:49;5.30;;;3.40;;
53299;SDS011;39187;48.476;8.310;2022-08-21T13:23:26;4.00;;;3.07;;
53299;SDS011;39187;48.476;8.310;2022-08-21T13:25:54;2.70;;;2.53;;
53299;SDS011;39187;48.476;8.310;2022-08-21T13:28:21;3.80;;;3.03;;
53299;SDS011;39187;48.476;8.310;2022-08-21T13:30:48;2.13;;;2.03;;
53299;SDS011;39187;48.476;8.310;2022-08-21T13:33:17;4.60;;;2.60;;
53299;SDS011;39187;48.476;8.310;2022-08-21T13:35:52;8.17;;;6.93;;
53299;SDS011;39187;48.476;8.310;2022-08-21T13:38:30;6.40;;;3.80;;
53299;SDS011;39187;48.476;8.310;2022-08-21T13:41:02;3.50;;;3.20;;
53299;SDS011;39187;48.476;8.310;2022-08-21T13:43:33;3.93;;;3.73;;
53299;SDS011;39187;48.476;8.310;2022-08-21T13:46:00;3.63;;;2.90;;
53299;SDS011;39187;48.476;8.310;2022-08-21T13:48:33;3.17;;;2.90;;
53299;SDS011;39187;48.476;8.310;2022-08-21T13:50:59;4.10;;;3.40;;
53299;SDS011;39187;48.476;8.310;2022-08-21T13:56:02;3.30;;;3.10;;
53299;SDS011;39187;48.476;8.310;2022-08-21T13:58:43;3.37;;;3.13;;
53299;SDS011;39187;48.476;8.310;2022-08-21T14:01:18;3.03;;;2.83;;
53299;SDS011;39187;48.476;8.310;2022-08-21T14:04:02;3.13;;;2.93;;
53299;SDS011;39187;48.476;8.310;2022-08-21T14:06:33;2.70;;;2.60;;
53299;SDS011;39187;48.476;8.310;2022-08-21T14:09:08;3.20;;;2.80;;
53299;SDS011;39187;48.476;8.310;2022-08-21T14:11:37;3.43;;;3.13;;
53299;SDS011;39187;48.476;8.310;2022-08-21T14:14:38;4.00;;;2.90;;
53299;SDS011;39187;48.476;8.310;2022-08-21T14:17:03;3.57;;;3.27;;
53299;SDS011;39187;48.476;8.310;2022-08-21T14:19:37;2.67;;;2.47;;
53299;SDS011;39187;48.476;8.310;2022-08-21T14:25:03;3.50;;;2.17;;
53299;SDS011;39187;48.476;8.310;2022-08-21T14:27:32;2.23;;;2.13;;
53299;SDS011;39187;48.476;8.310;2022-08-21T14:30:02;6.57;;;2.83;;
53299;SDS011;39187;48.476;8.310;2022-08-21T14:32:38;3.13;;;3.00;;
53299;SDS011;39187;48.476;8.310;2022-08-21T14:35:07;3.93;;;2.90;;
53299;SDS011;39187;48.476;8.310;2022-08-21T14:37:33;3.20;;;2.90;;
53299;SDS011;39187;48.476;8.310;2022-08-21T14:40:00;3.73;;;3.37;;
53299;SDS011;39187;48.476;8.310;2022-08-21T14:42:26;2.93;;;2.73;;
53299;SDS011;39187;48.476;8.310;2022-08-21T14:44:53;3.80;;;2.67;;
53299;SDS011;39187;48.476;8.310;2022-08-21T14:47:21;3.93;;;2.87;;
53299;SDS011;39187;48.476;8.310;2022-08-21T14:49:47;5.50;;;3.00;;
53299;SDS011;39187;48.476;8.310;2022-08-21T14:52:13;3.13;;;2.83;;
53299;SDS011;39187;48.476;8.310;2022-08-21T14:54:38;2.63;;;2.43;;
53299;SDS011;39187;48.476;8.310;2022-08-21T14:57:08;2.60;;;2.27;;
53299;SDS011;39187;48.476;8.310;2022-08-21T14:59:37;3.20;;;3.00;;
53299;SDS011;39187;48.476;8.310;2022-08-21T15:02:04;3.43;;;3.17;;
53299;SDS011;39187;48.476;8.310;2022-08-21T15:04:31;5.80;;;3.77;;
53299;SDS011;39187;48.476;8.310;2022-08-21T15:06:57;4.60;;;4.20;;
53299;SDS011;39187;48.476;8.310;2022-08-21T15:09:23;3.07;;;2.87;;
53299;SDS011;39187;48.476;8.310;2022-08-21T15:11:49;4.33;;;3.67;;
53299;SDS011;39187;48.476;8.310;2022-08-21T15:14:22;3.43;;;3.23;;
53299;SDS011;39187;48.476;8.310;2022-08-21T15:16:49;4.13;;;3.10;;
53299;SDS011;39187;48.476;8.310;2022-08-21T15:19:16;4.27;;;3.97;;
53299;SDS011;39187;48.476;8.310;2022-08-21T15:21:42;4.33;;;3.13;;
53299;SDS011;39187;48.476;8.310;2022-08-21T15:24:07;3.47;;;3.07;;
53299;SDS011;39187;48.476;8.310;2022-08-21T15:26:34;3.27;;;2.97;;
53299;SDS011;39187;48.476;8.310;2022-08-21T15:29:00;3.10;;;2.60;;
53299;SDS011;39187;48.476;8.310;2022-08-21T15:31:27;3.27;;;3.00;;
53299;SDS011;39187;48.476;8.310;2022-08-21T15:33:53;3.10;;;2.70;;
53299;SDS011;39187;48.476;8.310;2022-08-21T15:36:20;3.53;;;2.43;;
53299;SDS011;39187;48.476;8.310;2022-08-21T15:38:46;3.03;;;2.67;;
53299;SDS011;39187;48.476;8.310;2022-08-21T15:41:11;5.87;;;2.70;;
53299;SDS011;39187;48.476;8.310;2022-08-21T15:43:42;4.53;;;2.83;;
53299;SDS011;39187;48.476;8.310;2022-08-21T15:46:12;2.90;;;2.80;;
53299;SDS011;39187;48.476;8.310;2022-08-21T15:48:39;2.60;;;2.50;;
53299;SDS011;39187;48.476;8.310;2022-08-21T15:51:05;3.67;;;3.43;;
53299;SDS011;39187;48.476;8.310;2022-08-21T15:53:31;5.67;;;3.10;;
53299;SDS011;39187;48.476;8.310;2022-08-21T15:56:03;4.33;;;3.93;;
53299;SDS011;39187;48.476;8.310;2022-08-21T15:58:30;4.67;;;4.20;;
53299;SDS011;39187;48.476;8.310;2022-08-21T16:00:58;4.47;;;3.83;;
53299;SDS011;39187;48.476;8.310;2022-08-21T16:03:25;5.60;;;5.10;;
53299;SDS011;39187;48.476;8.310;2022-08-21T16:05:51;5.67;;;4.87;;
53299;SDS011;39187;48.476;8.310;2022-08-21T16:08:18;4.13;;;3.63;;
53299;SDS011;39187;48.476;8.310;2022-08-21T16:10:45;4.70;;;3.20;;
53299;SDS011;39187;48.476;8.310;2022-08-21T16:13:16;2.97;;;2.77;;
53299;SDS011;39187;48.476;8.310;2022-08-21T16:15:49;3.40;;;3.20;;
53299;SDS011;39187;48.476;8.310;2022-08-21T16:18:15;4.73;;;4.33;;
53299;SDS011;39187;48.476;8.310;2022-08-21T16:20:43;4.63;;;4.33;;